createdAt,value
2019-03-03T00:01:57.878Z,7.95
2019-03-03T00:04:28.180Z,7.96
2019-03-03T00:06:58.503Z,7.98
2019-03-03T00:09:29.163Z,8.03
2019-03-03T00:11:59.552Z,8.05
2019-03-03T00:14:30.492Z,8.04
2019-03-03T00:17:00.756Z,8.02
2019-03-03T00:19:31.367Z,8.03
2019-03-03T00:22:01.689Z,8.00
2019-03-03T00:24:32.504Z,8.04
2019-03-03T00:27:02.781Z,8.05
2019-03-03T00:29:33.119Z,8.05
2019-03-03T00:32:03.372Z,8.08
2019-03-03T00:34:33.840Z,8.17
2019-03-03T00:37:16.253Z,8.24
2019-03-03T00:40:00.456Z,8.29
2019-03-03T00:42:44.660Z,8.26
2019-03-03T00:45:24.836Z,8.23
2019-03-03T00:48:11.414Z,8.27
2019-03-03T00:51:06.827Z,8.27
2019-03-03T00:53:54.569Z,8.32
2019-03-03T00:56:49.956Z,8.29
2019-03-03T00:59:36.185Z,8.36
2019-03-03T01:02:12.408Z,8.42
2019-03-03T01:05:08.230Z,8.44
2019-03-03T01:07:51.559Z,8.50
2019-03-03T01:10:43.717Z,8.54
2019-03-03T01:13:35.747Z,8.54
2019-03-03T01:16:31.676Z,8.59
2019-03-03T01:19:07.391Z,8.61
2019-03-03T01:21:48.718Z,8.59
2019-03-03T01:24:31.349Z,8.61
2019-03-03T01:27:03.107Z,8.65
2019-03-03T01:29:33.342Z,8.68
2019-03-03T01:32:03.564Z,8.74
2019-03-03T01:34:34.589Z,8.76
2019-03-03T01:37:04.852Z,8.79
2019-03-03T01:39:35.246Z,8.79
2019-03-03T01:42:05.944Z,8.82
2019-03-03T01:44:36.215Z,8.88
2019-03-03T01:47:06.444Z,8.94
2019-03-03T01:49:36.727Z,8.98
2019-03-03T01:52:06.987Z,9.06
2019-03-03T01:54:37.295Z,9.12
2019-03-03T01:57:07.837Z,9.15
2019-03-03T01:59:38.040Z,9.25
2019-03-03T02:02:09.452Z,9.28
2019-03-03T02:04:39.727Z,9.39
2019-03-03T02:07:09.981Z,9.46
2019-03-03T02:09:40.612Z,9.48
2019-03-03T02:12:11.088Z,9.55
2019-03-03T02:14:41.325Z,9.62
2019-03-03T02:17:12.121Z,9.65
2019-03-03T02:19:42.390Z,9.67
2019-03-03T02:22:12.682Z,9.65
2019-03-03T02:24:43.298Z,9.62
2019-03-03T02:27:13.701Z,9.62
2019-03-03T02:29:43.941Z,9.66
2019-03-03T02:32:14.217Z,9.74
2019-03-03T02:34:44.908Z,9.77
2019-03-03T02:37:15.165Z,9.81
2019-03-03T02:39:45.508Z,9.79
2019-03-03T02:42:16.123Z,9.82
2019-03-03T02:44:46.386Z,9.81
2019-03-03T02:47:16.566Z,9.86
2019-03-03T02:49:46.882Z,9.81
2019-03-03T02:52:17.155Z,9.75
2019-03-03T02:54:47.436Z,9.75
2019-03-03T02:57:17.759Z,9.74
2019-03-03T02:59:48.377Z,9.74
2019-03-03T03:02:36.232Z,9.72
2019-03-03T03:05:07.013Z,9.76
2019-03-03T03:07:43.181Z,9.73
2019-03-03T03:10:25.532Z,9.74
2019-03-03T03:13:03.846Z,9.76
2019-03-03T03:15:59.331Z,9.77
2019-03-03T03:18:48.702Z,9.81
2019-03-03T03:21:28.830Z,9.73
2019-03-03T03:24:20.843Z,9.71
2019-03-03T03:27:03.586Z,9.73
2019-03-03T03:29:42.567Z,9.74
2019-03-03T03:32:27.033Z,9.71
2019-03-03T03:35:18.311Z,9.79
2019-03-03T03:38:11.390Z,9.81
2019-03-03T03:41:00.415Z,9.82
2019-03-03T03:43:48.121Z,9.83
2019-03-03T03:46:40.375Z,9.71
2019-03-03T03:49:30.135Z,9.74
2019-03-03T03:52:25.806Z,9.71
2019-03-03T03:55:13.451Z,9.82
2019-03-03T03:58:02.712Z,9.84
2019-03-03T04:00:58.579Z,9.89
2019-03-03T04:03:57.004Z,9.91
2019-03-03T04:06:49.222Z,9.90
2019-03-03T04:09:36.395Z,9.90
2019-03-03T04:12:28.723Z,9.79
2019-03-03T04:15:13.080Z,9.67
2019-03-03T04:18:05.026Z,9.60
2019-03-03T04:20:41.869Z,9.53
2019-03-03T04:23:29.169Z,9.45
2019-03-03T04:26:16.841Z,9.40
2019-03-03T04:29:11.804Z,9.34
2019-03-03T04:32:00.066Z,9.31
2019-03-03T04:34:47.901Z,9.30
2019-03-03T04:37:43.567Z,9.28
2019-03-03T04:40:22.380Z,9.28
2019-03-03T04:43:07.059Z,9.29
2019-03-03T04:45:53.633Z,9.30
2019-03-03T04:48:29.810Z,9.29
2019-03-03T04:51:25.048Z,9.29
2019-03-03T04:54:17.304Z,9.31
2019-03-03T04:57:18.588Z,9.25
2019-03-03T05:00:04.575Z,9.26
2019-03-03T05:03:12.152Z,9.18
2019-03-03T05:06:07.445Z,9.17
2019-03-03T05:08:59.129Z,9.15
2019-03-03T05:12:29.732Z,9.17
2019-03-03T05:15:14.200Z,9.15
2019-03-03T05:17:55.615Z,9.12
2019-03-03T05:20:26.120Z,9.11
2019-03-03T05:22:56.751Z,9.14
2019-03-03T05:25:26.971Z,9.15
2019-03-03T05:27:57.195Z,9.13
2019-03-03T05:30:27.390Z,9.15
2019-03-03T05:32:57.664Z,9.17
2019-03-03T05:35:27.964Z,9.17
2019-03-03T05:37:58.185Z,9.16
2019-03-03T05:40:28.842Z,9.11
2019-03-03T05:42:59.065Z,9.08
2019-03-03T05:45:29.263Z,9.08
2019-03-03T05:47:59.452Z,9.03
2019-03-03T05:50:29.963Z,9.07
2019-03-03T05:53:00.702Z,9.09
2019-03-03T05:55:30.977Z,9.13
2019-03-03T05:58:01.320Z,9.07
2019-03-03T06:00:31.751Z,9.14
2019-03-03T06:03:01.970Z,9.14
2019-03-03T06:05:32.210Z,9.10
2019-03-03T06:08:02.418Z,9.15
2019-03-03T06:10:32.636Z,9.14
2019-03-03T06:13:02.879Z,9.16
2019-03-03T06:15:33.077Z,9.14
2019-03-03T06:18:03.347Z,9.18
2019-03-03T06:20:33.609Z,9.16
2019-03-03T06:23:04.032Z,9.10
2019-03-03T06:25:34.304Z,9.12
2019-03-03T06:28:04.620Z,9.16
2019-03-03T06:30:35.095Z,9.19
2019-03-03T06:33:05.334Z,9.22
2019-03-03T06:35:35.682Z,9.24
2019-03-03T06:38:05.879Z,9.24
2019-03-03T06:40:36.192Z,9.23
2019-03-03T06:43:06.435Z,9.16
2019-03-03T06:45:36.615Z,9.26
2019-03-03T06:48:06.959Z,9.25
2019-03-03T06:50:37.283Z,9.24
2019-03-03T06:53:07.817Z,9.23
2019-03-03T06:55:38.044Z,9.28
2019-03-03T06:58:08.357Z,9.30
2019-03-03T07:00:38.724Z,9.31
2019-03-03T07:03:09.315Z,9.31
2019-03-03T07:05:39.641Z,9.26
2019-03-03T07:08:10.172Z,9.32
2019-03-03T07:10:40.726Z,9.32
2019-03-03T07:13:10.979Z,9.30
2019-03-03T07:15:41.357Z,9.29
2019-03-03T07:18:11.626Z,9.31
2019-03-03T07:20:41.984Z,9.30
2019-03-03T07:23:12.499Z,9.33
2019-03-03T07:25:42.769Z,9.34
2019-03-03T07:28:13.131Z,9.38
2019-03-03T07:30:43.410Z,9.41
2019-03-03T07:33:19.405Z,9.39
2019-03-03T07:35:49.649Z,9.40
2019-03-03T07:38:19.879Z,9.39
2019-03-03T07:40:50.324Z,9.39
2019-03-03T07:43:20.883Z,9.41
2019-03-03T07:45:51.092Z,9.40
2019-03-03T07:48:21.383Z,9.41
2019-03-03T07:50:51.639Z,9.43
2019-03-03T07:53:22.178Z,9.45
2019-03-03T07:55:52.571Z,9.44
2019-03-03T07:58:22.811Z,9.43
2019-03-03T08:00:53.825Z,9.39
2019-03-03T08:03:24.608Z,9.36
2019-03-03T08:05:54.870Z,9.37
2019-03-03T08:08:25.472Z,9.38
2019-03-03T08:10:56.076Z,9.40
2019-03-03T08:13:26.424Z,9.45
2019-03-03T08:15:57.115Z,9.44
2019-03-03T08:18:27.504Z,9.41
2019-03-03T08:20:57.736Z,9.40
2019-03-03T08:23:30.326Z,9.39
2019-03-03T08:26:02.367Z,9.39
2019-03-03T08:28:32.630Z,9.39
2019-03-03T08:31:02.876Z,9.40
2019-03-03T08:33:33.230Z,9.43
2019-03-03T08:36:03.687Z,9.42
2019-03-03T08:38:34.242Z,9.39
2019-03-03T08:41:04.763Z,9.39
2019-03-03T08:43:38.467Z,9.34
2019-03-03T08:46:26.142Z,9.34
2019-03-03T08:49:15.381Z,9.36
2019-03-03T08:52:03.148Z,9.41
2019-03-03T08:54:41.971Z,9.40
2019-03-03T08:57:38.253Z,9.40
2019-03-03T09:00:34.962Z,9.41
2019-03-03T09:03:24.848Z,9.44
2019-03-03T09:06:15.376Z,9.44
2019-03-03T09:08:51.571Z,9.44
2019-03-03T09:11:40.878Z,9.47
2019-03-03T09:14:33.182Z,9.49
2019-03-03T09:17:21.343Z,9.51
2019-03-03T09:20:09.474Z,9.56
2019-03-03T09:22:58.620Z,9.58
2019-03-03T09:25:43.966Z,9.62
2019-03-03T09:28:26.429Z,9.57
2019-03-03T09:31:18.464Z,9.57
2019-03-03T09:34:10.827Z,9.63
2019-03-03T09:37:06.792Z,9.64
2019-03-03T09:39:56.037Z,9.69
2019-03-03T09:42:39.583Z,9.71
2019-03-03T09:45:27.925Z,9.74
2019-03-03T09:48:03.932Z,9.72
2019-03-03T09:50:59.348Z,9.78
2019-03-03T09:53:48.804Z,9.83
2019-03-03T09:56:43.707Z,9.91
2019-03-03T09:59:44.945Z,9.99
2019-03-03T10:02:27.054Z,9.99
2019-03-03T10:05:13.685Z,10.05
2019-03-03T10:08:01.494Z,10.27
2019-03-03T10:10:54.751Z,10.39
2019-03-03T10:13:37.494Z,10.77
2019-03-03T10:16:26.026Z,11.42
2019-03-03T10:19:30.119Z,11.83
2019-03-03T10:22:16.636Z,12.24
2019-03-03T10:24:56.992Z,12.36
2019-03-03T10:27:52.387Z,12.36
2019-03-03T10:30:59.735Z,12.22
2019-03-03T10:33:55.311Z,11.94
2019-03-03T10:36:32.716Z,11.55
2019-03-03T10:39:26.167Z,11.36
2019-03-03T10:42:24.359Z,11.31
2019-03-03T10:45:04.223Z,11.45
2019-03-03T10:47:57.599Z,11.54
2019-03-03T10:50:49.988Z,11.65
2019-03-03T10:53:39.312Z,11.73
2019-03-03T10:56:21.934Z,11.72
2019-03-03T10:59:19.977Z,11.63
2019-03-03T11:02:15.441Z,11.64
2019-03-03T11:05:02.672Z,11.69
2019-03-03T11:08:10.555Z,11.51
2019-03-03T11:10:58.461Z,11.41
2019-03-03T11:13:46.488Z,11.51
2019-03-03T11:16:34.223Z,11.61
2019-03-03T11:19:11.181Z,11.50
2019-03-03T11:22:00.411Z,11.38
2019-03-03T11:24:41.047Z,11.21
2019-03-03T11:27:36.547Z,11.19
2019-03-03T11:30:39.754Z,11.18
2019-03-03T11:33:40.898Z,11.11
2019-03-03T11:36:30.167Z,11.10
2019-03-03T11:39:17.673Z,10.98
2019-03-03T11:42:11.513Z,10.90
2019-03-03T11:45:12.196Z,10.87
2019-03-03T11:48:04.222Z,10.90
2019-03-03T11:50:51.459Z,10.99
2019-03-03T11:53:31.222Z,11.05
2019-03-03T11:56:23.589Z,11.14
2019-03-03T11:59:05.338Z,11.24
2019-03-03T12:01:51.744Z,11.24
2019-03-03T12:04:41.522Z,11.29
2019-03-03T12:07:33.498Z,11.34
2019-03-03T12:10:13.244Z,11.32
2019-03-03T12:12:58.621Z,11.33
2019-03-03T12:15:37.529Z,11.18
2019-03-03T12:18:14.865Z,11.18
2019-03-03T12:21:12.445Z,11.27
2019-03-03T12:23:54.559Z,11.15
2019-03-03T12:26:33.884Z,10.93
2019-03-03T12:29:32.495Z,10.89
2019-03-03T12:32:21.850Z,10.80
2019-03-03T12:35:04.457Z,10.60
2019-03-03T12:37:52.905Z,10.52
2019-03-03T12:40:44.972Z,10.47
2019-03-03T12:43:24.084Z,10.49
2019-03-03T12:46:06.367Z,10.53
2019-03-03T12:48:55.621Z,10.64
2019-03-03T12:51:43.231Z,10.70
2019-03-03T12:54:31.433Z,10.72
2019-03-03T12:57:38.841Z,10.76
2019-03-03T13:00:39.044Z,10.80
2019-03-03T13:03:34.001Z,10.91
2019-03-03T13:06:32.709Z,11.08
2019-03-03T13:09:40.184Z,11.03
2019-03-03T13:12:16.781Z,10.94
2019-03-03T13:14:54.493Z,11.09
2019-03-03T13:17:49.555Z,11.10
2019-03-03T13:20:41.552Z,10.97
2019-03-03T13:23:30.882Z,10.94
2019-03-03T13:26:20.535Z,11.02
2019-03-03T13:29:01.661Z,11.02
2019-03-03T13:31:56.899Z,10.95
2019-03-03T13:34:43.072Z,11.02
2019-03-03T13:37:44.384Z,11.03
2019-03-03T13:40:36.591Z,10.98
2019-03-03T13:43:06.879Z,11.01
2019-03-03T13:45:37.463Z,10.92
2019-03-03T13:48:08.197Z,10.90
2019-03-03T13:50:38.574Z,10.87
2019-03-03T13:53:09.078Z,10.75
2019-03-03T13:55:39.344Z,10.74
2019-03-03T13:58:09.652Z,10.73
2019-03-03T14:00:40.411Z,10.72
2019-03-03T14:03:10.716Z,10.77
2019-03-03T14:05:40.954Z,10.75
2019-03-03T14:08:11.188Z,10.75
2019-03-03T14:10:41.573Z,10.70
2019-03-03T14:13:11.829Z,10.58
2019-03-03T14:15:42.126Z,10.54
2019-03-03T14:18:12.512Z,10.49
2019-03-03T14:20:42.787Z,10.45
2019-03-03T14:23:13.099Z,10.44
2019-03-03T14:25:43.609Z,10.44
2019-03-03T14:28:14.326Z,10.42
2019-03-03T14:30:44.654Z,10.39
2019-03-03T14:33:14.912Z,10.42
2019-03-03T14:35:45.139Z,10.42
2019-03-03T14:38:15.828Z,10.44
2019-03-03T14:40:47.013Z,10.48
2019-03-03T14:43:17.321Z,10.53
2019-03-03T14:45:47.563Z,10.52
2019-03-03T14:48:18.201Z,10.43
2019-03-03T14:50:48.455Z,10.34
2019-03-03T14:53:18.839Z,10.23
2019-03-03T14:55:49.080Z,10.22
2019-03-03T14:58:19.362Z,10.12
2019-03-03T15:00:50.430Z,10.01
2019-03-03T15:03:20.752Z,9.92
2019-03-03T15:05:50.978Z,9.81
2019-03-03T15:08:21.177Z,9.81
2019-03-03T15:10:51.357Z,9.83
2019-03-03T15:13:21.659Z,9.81
2019-03-03T15:15:51.929Z,9.80
2019-03-03T15:18:22.482Z,9.80
2019-03-03T15:20:52.720Z,9.76
2019-03-03T15:23:23.168Z,9.73
2019-03-03T15:25:53.349Z,9.67
2019-03-03T15:28:23.812Z,9.67
2019-03-03T15:30:54.142Z,9.71
2019-03-03T15:33:24.515Z,9.74
2019-03-03T15:35:55.081Z,9.76
2019-03-03T15:38:25.522Z,9.81
2019-03-03T15:40:55.819Z,9.81
2019-03-03T15:43:26.013Z,9.81
2019-03-03T15:45:56.772Z,9.81
2019-03-03T15:48:27.181Z,9.82
2019-03-03T15:50:57.438Z,9.83
2019-03-03T15:53:27.749Z,9.81
2019-03-03T15:55:58.037Z,9.79
2019-03-03T15:58:28.590Z,9.80
2019-03-03T16:00:59.543Z,9.81
2019-03-03T16:03:29.828Z,9.82
2019-03-03T16:06:00.003Z,9.82
2019-03-03T16:08:30.242Z,9.87
2019-03-03T16:11:00.600Z,9.91
2019-03-03T16:13:31.457Z,9.97
2019-03-03T16:16:01.682Z,10.00
2019-03-03T16:18:32.304Z,9.98
2019-03-03T16:21:02.491Z,9.90
2019-03-03T16:23:32.961Z,9.99
2019-03-03T16:26:03.188Z,10.03
2019-03-03T16:28:33.548Z,10.09
2019-03-03T16:31:03.861Z,10.09
2019-03-03T16:33:34.058Z,10.13
2019-03-03T16:36:04.636Z,10.11
2019-03-03T16:38:34.942Z,10.07
2019-03-03T16:41:05.383Z,9.98
2019-03-03T16:43:35.827Z,9.95
2019-03-03T16:46:06.683Z,9.88
2019-03-03T16:48:37.399Z,9.90
2019-03-03T16:51:07.823Z,9.84
2019-03-03T16:53:38.401Z,9.88
2019-03-03T16:56:08.615Z,9.86
2019-03-03T16:58:38.834Z,9.85
2019-03-03T17:01:09.044Z,9.89
2019-03-03T17:03:39.366Z,9.88
2019-03-03T17:06:09.568Z,9.89
2019-03-03T17:08:39.979Z,9.84
2019-03-03T17:11:10.189Z,9.84
2019-03-03T17:13:40.508Z,9.80
2019-03-03T17:16:11.556Z,9.82
2019-03-03T17:18:41.806Z,9.88
2019-03-03T17:21:12.017Z,9.88
2019-03-03T17:23:42.861Z,9.93
2019-03-03T17:26:13.545Z,9.97
2019-03-03T17:28:44.046Z,9.95
2019-03-03T17:31:14.698Z,9.93
2019-03-03T17:33:45.094Z,9.92
2019-03-03T17:36:15.333Z,9.89
2019-03-03T17:38:46.229Z,9.89
2019-03-03T17:41:16.532Z,9.94
2019-03-03T17:43:46.943Z,9.91
2019-03-03T17:46:17.341Z,9.86
2019-03-03T17:48:47.965Z,9.87
2019-03-03T17:51:18.444Z,9.80
2019-03-03T17:53:49.159Z,9.76
2019-03-03T17:56:19.629Z,9.74
2019-03-03T17:58:49.898Z,9.73
2019-03-03T18:01:21.020Z,9.72
2019-03-03T18:03:51.244Z,9.68
2019-03-03T18:06:21.574Z,9.67
2019-03-03T18:08:51.896Z,9.67
2019-03-03T18:11:22.304Z,9.71
2019-03-03T18:13:52.745Z,9.71
2019-03-03T18:16:25.835Z,9.70
2019-03-03T18:18:56.353Z,9.68
2019-03-03T18:21:26.759Z,9.67
2019-03-03T18:23:57.171Z,9.64
2019-03-03T18:26:31.327Z,9.63
2019-03-03T18:29:03.724Z,9.55
2019-03-03T18:31:35.427Z,9.44
2019-03-03T18:34:06.291Z,9.45
2019-03-03T18:36:36.532Z,9.43
2019-03-03T18:39:07.881Z,9.38
2019-03-03T18:41:38.189Z,9.33
2019-03-03T18:44:09.127Z,9.30
2019-03-03T18:46:41.703Z,9.30
2019-03-03T18:49:12.541Z,9.29
2019-03-03T18:51:43.041Z,9.31
2019-03-03T18:54:13.978Z,9.30
2019-03-03T18:56:44.399Z,9.29
2019-03-03T18:59:15.704Z,9.25
2019-03-03T19:01:46.064Z,9.26
2019-03-03T19:04:16.706Z,9.23
2019-03-03T19:06:48.515Z,9.25
2019-03-03T19:09:20.666Z,9.29
2019-03-03T19:11:51.192Z,9.31
2019-03-03T19:14:28.244Z,9.36
2019-03-03T19:16:54.097Z,9.39
2019-03-03T19:19:24.503Z,9.44
2019-03-03T19:21:57.572Z,9.51
2019-03-03T19:24:29.780Z,9.60
2019-03-03T19:27:01.679Z,9.65
2019-03-03T19:29:31.799Z,9.71
2019-03-03T19:32:02.055Z,9.77
2019-03-03T19:34:32.328Z,9.87
2019-03-03T19:37:02.761Z,9.93
2019-03-03T19:39:33.454Z,10.02
2019-03-03T19:42:03.725Z,10.11
2019-03-03T19:44:34.098Z,10.19
2019-03-03T19:47:05.612Z,10.24
2019-03-03T19:49:36.499Z,10.32
2019-03-03T19:52:07.081Z,10.43
2019-03-03T19:54:37.464Z,10.49
2019-03-03T19:57:08.449Z,10.59
2019-03-03T19:59:39.012Z,10.61
2019-03-03T20:02:09.339Z,10.69
2019-03-03T20:04:40.128Z,10.75
2019-03-03T20:07:10.390Z,10.77
2019-03-03T20:09:40.716Z,10.81
2019-03-03T20:12:11.012Z,10.80
2019-03-03T20:14:41.309Z,10.84
2019-03-03T20:17:11.796Z,10.90
2019-03-03T20:19:42.337Z,10.90
2019-03-03T20:22:12.631Z,10.88
2019-03-03T20:24:43.194Z,10.89
2019-03-03T20:27:13.608Z,10.87
2019-03-03T20:29:43.979Z,10.84
2019-03-03T20:32:14.274Z,10.85
2019-03-03T20:34:44.710Z,10.86
2019-03-03T20:37:15.079Z,10.84
2019-03-03T20:39:45.532Z,10.83
2019-03-03T20:42:15.710Z,10.85
2019-03-03T20:44:46.093Z,10.88
2019-03-03T20:47:16.530Z,10.86
2019-03-03T20:49:46.933Z,10.86
2019-03-03T20:52:17.305Z,10.84
2019-03-03T20:54:47.564Z,10.85
2019-03-03T20:57:20.514Z,10.83
2019-03-03T20:59:51.152Z,10.85
2019-03-03T21:02:21.478Z,10.82
2019-03-03T21:04:51.784Z,10.84
2019-03-03T21:07:22.083Z,10.81
2019-03-03T21:09:52.256Z,10.83
2019-03-03T21:12:22.543Z,10.84
2019-03-03T21:14:52.979Z,10.86
2019-03-03T21:17:23.203Z,10.87
2019-03-03T21:19:53.663Z,10.87
2019-03-03T21:22:23.964Z,10.89
2019-03-03T21:24:54.215Z,10.91
2019-03-03T21:27:24.534Z,10.87
2019-03-03T21:29:55.242Z,10.90
2019-03-03T21:32:26.016Z,10.90
2019-03-03T21:34:56.291Z,10.90
2019-03-03T21:37:26.507Z,10.90
2019-03-03T21:39:59.239Z,10.88
2019-03-03T21:42:30.000Z,10.87
2019-03-03T21:45:00.377Z,10.85
2019-03-03T21:47:31.705Z,10.89
2019-03-03T21:50:02.156Z,10.92
2019-03-03T21:52:33.407Z,10.92
2019-03-03T21:55:03.675Z,10.94
2019-03-03T21:57:34.800Z,10.94
2019-03-03T22:00:06.835Z,10.96
2019-03-03T22:02:37.171Z,10.99
2019-03-03T22:05:07.975Z,10.94
2019-03-03T22:07:38.219Z,10.91
2019-03-03T22:10:08.583Z,10.93
2019-03-03T22:12:38.847Z,10.95
2019-03-03T22:15:09.190Z,10.94
2019-03-03T22:17:39.444Z,10.95
2019-03-03T22:20:10.217Z,10.91
2019-03-03T22:22:40.614Z,10.87
2019-03-03T22:25:10.827Z,10.87
2019-03-03T22:27:41.230Z,10.87
2019-03-03T22:30:11.665Z,10.81
2019-03-03T22:32:42.174Z,10.81
2019-03-03T22:35:12.534Z,10.83
2019-03-03T22:37:43.319Z,10.77
2019-03-03T22:40:13.736Z,10.77
2019-03-03T22:42:44.103Z,10.81
2019-03-03T22:45:14.889Z,10.81
2019-03-03T22:47:45.078Z,10.84
2019-03-03T22:50:15.438Z,10.82
2019-03-03T22:52:46.014Z,10.81
2019-03-03T22:55:16.858Z,10.80
2019-03-03T22:57:47.114Z,10.76
2019-03-03T23:00:43.015Z,10.72
2019-03-03T23:03:15.569Z,10.68
2019-03-03T23:05:58.254Z,10.65
2019-03-03T23:08:33.671Z,10.67
2019-03-03T23:11:39.696Z,10.65
2019-03-03T23:14:44.016Z,10.63
2019-03-03T23:17:36.210Z,10.58
2019-03-03T23:20:27.041Z,10.56
2019-03-03T23:23:26.164Z,10.50
2019-03-03T23:25:56.485Z,10.46
2019-03-03T23:28:26.742Z,10.46
2019-03-03T23:30:57.866Z,10.43
2019-03-03T23:33:28.107Z,10.41
2019-03-03T23:35:58.809Z,10.39
2019-03-03T23:38:29.274Z,10.37
2019-03-03T23:40:59.770Z,10.38
2019-03-03T23:43:30.005Z,10.38
2019-03-03T23:46:01.116Z,10.34
2019-03-03T23:48:31.417Z,10.30
2019-03-03T23:51:01.719Z,10.31
2019-03-03T23:53:31.989Z,10.31
2019-03-03T23:56:02.717Z,10.30
2019-03-03T23:58:32.973Z,10.32
